createdAt,value
2024-01-03T00:00:14.648Z,9.7
2024-01-03T00:01:15.816Z,9.7
2024-01-03T00:02:17.092Z,9.7
2024-01-03T00:03:18.296Z,9.7
2024-01-03T00:04:19.709Z,9.7
2024-01-03T00:05:20.875Z,9.7
2024-01-03T00:06:22.123Z,9.8
2024-01-03T00:07:23.483Z,9.8
2024-01-03T00:08:24.717Z,9.8
2024-01-03T00:09:25.918Z,9.8
2024-01-03T00:10:27.092Z,9.8
2024-01-03T00:11:28.292Z,9.8
2024-01-03T00:12:29.466Z,9.8
2024-01-03T00:13:30.643Z,9.8
2024-01-03T00:14:31.820Z,9.8
2024-01-03T00:15:33.318Z,9.8
2024-01-03T00:16:34.498Z,9.8
2024-01-03T00:17:35.730Z,9.8
2024-01-03T00:18:37.692Z,9.8
2024-01-03T00:19:39.994Z,9.8
2024-01-03T00:20:41.218Z,9.8
2024-01-03T00:21:46.358Z,9.8
2024-01-03T00:22:47.494Z,9.8
2024-01-03T00:23:48.769Z,9.8
2024-01-03T00:24:50.123Z,9.8
2024-01-03T00:25:51.347Z,9.8
2024-01-03T00:26:52.548Z,9.8
2024-01-03T00:27:53.791Z,9.8
2024-01-03T00:28:54.953Z,9.8
2024-01-03T00:29:56.163Z,9.8
2024-01-03T00:30:57.666Z,9.8
2024-01-03T00:31:59.118Z,9.8
2024-01-03T00:33:03.973Z,9.8
2024-01-03T00:34:06.964Z,9.8
2024-01-03T00:35:08.625Z,9.7
2024-01-03T00:36:09.826Z,9.7
2024-01-03T00:37:11.009Z,9.7
2024-01-03T00:38:12.172Z,9.7
2024-01-03T00:39:13.358Z,9.7
2024-01-03T00:40:14.515Z,9.7
2024-01-03T00:41:15.682Z,9.7
2024-01-03T00:42:16.894Z,9.7
2024-01-03T00:43:18.026Z,9.7
2024-01-03T00:44:19.203Z,9.7
2024-01-03T00:45:20.396Z,9.7
2024-01-03T00:46:21.548Z,9.7
2024-01-03T00:47:22.790Z,9.7
2024-01-03T00:48:24.074Z,9.7
2024-01-03T00:49:25.591Z,9.7
2024-01-03T00:50:27.883Z,9.7
2024-01-03T00:51:29.086Z,9.7
2024-01-03T00:52:30.253Z,9.7
2024-01-03T00:53:31.415Z,9.7
2024-01-03T00:54:32.630Z,9.7
2024-01-03T00:55:33.776Z,9.7
2024-01-03T00:56:35.024Z,9.7
2024-01-03T00:57:36.226Z,9.7
2024-01-03T00:58:37.391Z,9.7
2024-01-03T00:59:38.577Z,9.7
2024-01-03T01:00:39.989Z,9.7
2024-01-03T01:01:41.266Z,9.7
2024-01-03T01:02:42.483Z,9.7
2024-01-03T01:03:43.778Z,9.7
2024-01-03T01:04:45.063Z,9.7
2024-01-03T01:05:46.541Z,9.7
2024-01-03T01:06:47.914Z,9.7
2024-01-03T01:07:49.082Z,9.7
2024-01-03T01:08:50.285Z,9.7
2024-01-03T01:09:51.434Z,9.7
2024-01-03T01:10:52.690Z,9.8
2024-01-03T01:11:54.175Z,9.7
2024-01-03T01:12:55.522Z,9.7
2024-01-03T01:13:56.672Z,9.7
2024-01-03T01:14:57.900Z,9.8
2024-01-03T01:15:59.136Z,9.7
2024-01-03T01:17:00.312Z,9.7
2024-01-03T01:18:01.623Z,9.8
2024-01-03T01:19:03.397Z,9.7
2024-01-03T01:20:04.839Z,9.7
2024-01-03T01:21:06.038Z,9.7
2024-01-03T01:22:07.180Z,9.7
2024-01-03T01:23:08.346Z,9.7
2024-01-03T01:24:09.505Z,9.7
2024-01-03T01:25:10.666Z,9.7
2024-01-03T01:26:11.925Z,9.7
2024-01-03T01:27:13.121Z,9.7
2024-01-03T01:28:14.292Z,9.7
2024-01-03T01:29:15.465Z,9.7
2024-01-03T01:30:16.816Z,9.7
2024-01-03T01:31:18.018Z,9.7
2024-01-03T01:32:19.201Z,9.7
2024-01-03T01:33:20.437Z,9.7
2024-01-03T01:34:22.028Z,9.7
2024-01-03T01:35:23.222Z,9.7
2024-01-03T01:36:24.577Z,9.7
2024-01-03T01:37:25.779Z,9.7
2024-01-03T01:38:26.963Z,9.7
2024-01-03T01:39:28.247Z,9.7
2024-01-03T01:40:29.405Z,9.7
2024-01-03T01:41:30.662Z,9.7
2024-01-03T01:42:31.977Z,9.7
2024-01-03T01:43:33.194Z,9.6
2024-01-03T01:44:34.391Z,9.7
2024-01-03T01:45:35.673Z,9.6
2024-01-03T01:46:36.902Z,9.6
2024-01-03T01:47:38.130Z,9.7
2024-01-03T01:48:39.515Z,9.7
2024-01-03T01:49:41.587Z,9.7
2024-01-03T01:50:42.952Z,9.7
2024-01-03T01:51:44.205Z,9.7
2024-01-03T01:52:45.350Z,9.6
2024-01-03T01:53:46.522Z,9.7
2024-01-03T01:54:47.834Z,9.7
2024-01-03T01:55:48.997Z,9.7
2024-01-03T01:56:50.181Z,9.7
2024-01-03T01:57:51.375Z,9.6
2024-01-03T01:58:52.561Z,9.6
2024-01-03T01:59:53.907Z,9.7
2024-01-03T02:00:55.233Z,9.7
2024-01-03T02:01:56.446Z,9.7
2024-01-03T02:02:57.667Z,9.7
2024-01-03T02:03:58.929Z,9.7
2024-01-03T02:05:00.357Z,9.7
2024-01-03T02:06:01.550Z,9.7
2024-01-03T02:07:03.112Z,9.7
2024-01-03T02:08:04.273Z,9.7
2024-01-03T02:09:05.428Z,9.7
2024-01-03T02:10:06.637Z,9.7
2024-01-03T02:11:07.840Z,9.7
2024-01-03T02:12:09.066Z,9.7
2024-01-03T02:13:10.248Z,9.7
2024-01-03T02:14:11.398Z,9.7
2024-01-03T02:15:12.635Z,9.7
2024-01-03T02:16:15.853Z,9.7
2024-01-03T02:17:17.521Z,9.7
2024-01-03T02:18:18.860Z,9.7
2024-01-03T02:19:20.664Z,9.7
2024-01-03T02:20:22.012Z,9.7
2024-01-03T02:21:23.258Z,9.7
2024-01-03T02:22:24.476Z,9.6
2024-01-03T02:23:25.658Z,9.6
2024-01-03T02:24:26.803Z,9.6
2024-01-03T02:25:27.971Z,9.6
2024-01-03T02:26:29.960Z,9.6
2024-01-03T02:27:32.013Z,9.6
2024-01-03T02:28:33.176Z,9.6
2024-01-03T02:29:34.353Z,9.6
2024-01-03T02:30:35.648Z,9.6
2024-01-03T02:31:36.826Z,9.6
2024-01-03T02:32:38.024Z,9.6
2024-01-03T02:33:39.564Z,9.6
2024-01-03T02:34:41.006Z,9.6
2024-01-03T02:35:42.274Z,9.6
2024-01-03T02:36:43.487Z,9.6
2024-01-03T02:37:44.698Z,9.6
2024-01-03T02:38:45.894Z,9.6
2024-01-03T02:39:47.072Z,9.6
2024-01-03T02:40:48.238Z,9.6
2024-01-03T02:41:49.424Z,9.6
2024-01-03T02:42:50.722Z,9.6
2024-01-03T02:43:51.888Z,9.5
2024-01-03T02:44:53.312Z,9.5
2024-01-03T02:45:54.712Z,9.5
2024-01-03T02:46:55.877Z,9.5
2024-01-03T02:47:57.146Z,9.5
2024-01-03T02:48:58.816Z,9.5
2024-01-03T02:50:00.794Z,9.5
2024-01-03T02:51:02.353Z,9.5
2024-01-03T02:52:03.517Z,9.5
2024-01-03T02:53:04.698Z,9.5
2024-01-03T02:54:05.850Z,9.5
2024-01-03T02:55:07.009Z,9.5
2024-01-03T02:56:08.170Z,9.5
2024-01-03T02:57:09.372Z,9.5
2024-01-03T02:58:10.770Z,9.5
2024-01-03T02:59:12.755Z,9.4
2024-01-03T03:00:14.106Z,9.4
2024-01-03T03:01:15.385Z,9.4
2024-01-03T03:02:16.720Z,9.4
2024-01-03T03:03:17.886Z,9.4
2024-01-03T03:04:19.206Z,9.4
2024-01-03T03:05:20.354Z,9.4
2024-01-03T03:06:21.551Z,9.4
2024-01-03T03:07:22.954Z,9.4
2024-01-03T03:08:24.198Z,9.4
2024-01-03T03:09:25.402Z,9.4
2024-01-03T03:10:26.687Z,9.4
2024-01-03T03:11:27.882Z,9.4
2024-01-03T03:12:29.078Z,9.4
2024-01-03T03:13:30.256Z,9.4
2024-01-03T03:14:31.418Z,9.4
2024-01-03T03:15:32.604Z,9.4
2024-01-03T03:16:33.789Z,9.3
2024-01-03T03:17:35.016Z,9.3
2024-01-03T03:18:36.697Z,9.3
2024-01-03T03:19:38.521Z,9.3
2024-01-03T03:20:39.753Z,9.3
2024-01-03T03:21:40.963Z,9.3
2024-01-03T03:22:42.135Z,9.3
2024-01-03T03:23:43.350Z,9.3
2024-01-03T03:24:44.574Z,9.3
2024-01-03T03:25:45.740Z,9.3
2024-01-03T03:26:46.928Z,9.3
2024-01-03T03:27:48.096Z,9.3
2024-01-03T03:28:49.264Z,9.3
2024-01-03T03:29:50.426Z,9.3
2024-01-03T03:30:51.819Z,9.3
2024-01-03T03:31:53.124Z,9.3
2024-01-03T03:32:54.480Z,9.3
2024-01-03T03:33:56.044Z,9.3
2024-01-03T03:34:57.740Z,9.3
2024-01-03T03:35:58.949Z,9.3
2024-01-03T03:37:00.275Z,9.3
2024-01-03T03:38:01.434Z,9.3
2024-01-03T03:39:02.740Z,9.3
2024-01-03T03:40:03.983Z,9.3
2024-01-03T03:41:05.148Z,9.3
2024-01-03T03:42:06.354Z,9.3
2024-01-03T03:43:07.565Z,9.2
2024-01-03T03:44:08.736Z,9.3
2024-01-03T03:45:09.889Z,9.3
2024-01-03T03:46:11.057Z,9.3
2024-01-03T03:47:12.354Z,9.3
2024-01-03T03:48:13.821Z,9.3
2024-01-03T03:49:16.777Z,9.3
2024-01-03T03:50:18.149Z,9.3
2024-01-03T03:51:19.507Z,9.3
2024-01-03T03:52:20.665Z,9.3
2024-01-03T03:53:21.866Z,9.3
2024-01-03T03:54:23.143Z,9.3
2024-01-03T03:55:24.289Z,9.3
2024-01-03T03:56:25.477Z,9.3
2024-01-03T03:57:26.755Z,9.3
2024-01-03T03:58:27.916Z,9.3
2024-01-03T03:59:29.140Z,9.3
2024-01-03T04:00:30.335Z,9.3
2024-01-03T04:01:31.540Z,9.3
2024-01-03T04:02:32.734Z,9.3
2024-01-03T04:03:33.958Z,9.3
2024-01-03T04:04:35.197Z,9.3
2024-01-03T04:05:36.374Z,9.2
2024-01-03T04:06:37.713Z,9.3
2024-01-03T04:07:38.976Z,9.2
2024-01-03T04:08:40.199Z,9.2
2024-01-03T04:09:41.400Z,9.2
2024-01-03T04:10:42.534Z,9.2
2024-01-03T04:11:43.725Z,9.2
2024-01-03T04:12:45.068Z,9.2
2024-01-03T04:13:46.221Z,9.2
2024-01-03T04:14:47.439Z,9.2
2024-01-03T04:15:48.613Z,9.2
2024-01-03T04:16:49.773Z,9.2
2024-01-03T04:17:51.111Z,9.2
2024-01-03T04:18:52.754Z,9.2
2024-01-03T04:19:54.142Z,9.2
2024-01-03T04:20:55.386Z,9.2
2024-01-03T04:21:56.661Z,9.2
2024-01-03T04:22:57.837Z,9.2
2024-01-03T04:23:59.068Z,9.2
2024-01-03T04:25:00.637Z,9.2
2024-01-03T04:26:01.797Z,9.2
2024-01-03T04:27:03.016Z,9.2
2024-01-03T04:28:04.371Z,9.2
2024-01-03T04:29:05.535Z,9.2
2024-01-03T04:30:06.754Z,9.2
2024-01-03T04:31:07.984Z,9.2
2024-01-03T04:32:09.283Z,9.2
2024-01-03T04:33:10.543Z,9.2
2024-01-03T04:34:12.049Z,9.2
2024-01-03T04:35:13.396Z,9.2
2024-01-03T04:36:14.823Z,9.2
2024-01-03T04:37:15.997Z,9.2
2024-01-03T04:38:17.209Z,9.2
2024-01-03T04:39:18.479Z,9.2
2024-01-03T04:40:19.679Z,9.2
2024-01-03T04:41:20.860Z,9.2
2024-01-03T04:42:22.162Z,9.2
2024-01-03T04:43:23.339Z,9.2
2024-01-03T04:44:24.543Z,9.2
2024-01-03T04:45:25.789Z,9.2
2024-01-03T04:46:26.942Z,9.2
2024-01-03T04:47:28.155Z,9.2
2024-01-03T04:48:29.729Z,9.2
2024-01-03T04:49:31.113Z,9.2
2024-01-03T04:50:32.350Z,9.2
2024-01-03T04:51:33.630Z,9.2
2024-01-03T04:52:34.794Z,9.2
2024-01-03T04:53:35.989Z,9.2
2024-01-03T04:54:37.182Z,9.2
2024-01-03T04:55:38.382Z,9.2
2024-01-03T04:56:39.602Z,9.2
2024-01-03T04:57:40.935Z,9.2
2024-01-03T04:58:42.096Z,9.2
2024-01-03T04:59:43.289Z,9.2
2024-01-03T05:00:44.580Z,9.2
2024-01-03T05:01:45.760Z,9.2
2024-01-03T05:02:46.968Z,9.2
2024-01-03T05:03:48.331Z,9.2
2024-01-03T05:04:49.502Z,9.2
2024-01-03T05:05:50.796Z,9.2
2024-01-03T05:06:52.322Z,9.2
2024-01-03T05:07:53.485Z,9.2
2024-01-03T05:08:54.716Z,9.2
2024-01-03T05:09:56.061Z,9.2
2024-01-03T05:10:57.254Z,9.2
2024-01-03T05:11:58.403Z,9.2
2024-01-03T05:12:59.638Z,9.2
2024-01-03T05:14:00.798Z,9.2
2024-01-03T05:15:02.200Z,9.2
2024-01-03T05:16:03.799Z,9.2
2024-01-03T05:17:04.934Z,9.2
2024-01-03T05:18:06.323Z,9.2
2024-01-03T05:19:08.460Z,9.2
2024-01-03T05:20:10.568Z,9.2
2024-01-03T05:21:11.762Z,9.2
2024-01-03T05:22:12.908Z,9.2
2024-01-03T05:23:14.087Z,9.2
2024-01-03T05:24:15.407Z,9.2
2024-01-03T05:25:16.579Z,9.2
2024-01-03T05:26:17.821Z,9.2
2024-01-03T05:27:19.039Z,9.2
2024-01-03T05:28:20.192Z,9.2
2024-01-03T05:29:21.406Z,9.2
2024-01-03T05:30:22.778Z,9.2
2024-01-03T05:31:24.336Z,9.2
2024-01-03T05:32:25.506Z,9.2
2024-01-03T05:33:27.091Z,9.2
2024-01-03T05:34:28.642Z,9.2
2024-01-03T05:35:29.841Z,9.2
2024-01-03T05:36:31.140Z,9.2
2024-01-03T05:37:32.275Z,9.2
2024-01-03T05:38:33.451Z,9.2
2024-01-03T05:39:34.605Z,9.2
2024-01-03T05:40:35.769Z,9.2
2024-01-03T05:41:36.990Z,9.2
2024-01-03T05:42:38.151Z,9.2
2024-01-03T05:43:39.310Z,9.2
2024-01-03T05:44:40.542Z,9.2
2024-01-03T05:45:41.752Z,9.2
2024-01-03T05:46:42.935Z,9.2
2024-01-03T05:47:44.116Z,9.2
2024-01-03T05:48:45.622Z,9.2
2024-01-03T05:49:47.415Z,9.2
2024-01-03T05:50:48.785Z,9.2
2024-01-03T05:51:49.962Z,9.2
2024-01-03T05:52:51.120Z,9.2
2024-01-03T05:53:52.302Z,9.2
2024-01-03T05:54:53.650Z,9.2
2024-01-03T05:55:54.812Z,9.2
2024-01-03T05:56:56.100Z,9.2
2024-01-03T05:57:57.546Z,9.2
2024-01-03T05:58:58.719Z,9.2
2024-01-03T05:59:59.951Z,9.2
2024-01-03T06:01:01.473Z,9.2
2024-01-03T06:02:02.668Z,9.2
2024-01-03T06:03:03.848Z,9.2
2024-01-03T06:04:05.172Z,9.2
2024-01-03T06:05:06.456Z,9.2
2024-01-03T06:06:07.819Z,9.2
2024-01-03T06:07:09.251Z,9.2
2024-01-03T06:08:10.902Z,9.2
2024-01-03T06:09:13.127Z,9.2
2024-01-03T06:10:14.338Z,9.3
2024-01-03T06:11:15.544Z,9.2
2024-01-03T06:12:16.781Z,9.3
2024-01-03T06:13:17.917Z,9.3
2024-01-03T06:14:19.089Z,9.3
2024-01-03T06:15:20.371Z,9.3
2024-01-03T06:16:21.595Z,9.3
2024-01-03T06:17:22.828Z,9.3
2024-01-03T06:18:24.240Z,9.3
2024-01-03T06:19:25.996Z,9.3
2024-01-03T06:20:27.441Z,9.3
2024-01-03T06:21:28.667Z,9.3
2024-01-03T06:22:29.844Z,9.3
2024-01-03T06:23:31.021Z,9.3
2024-01-03T06:24:32.188Z,9.3
2024-01-03T06:25:33.357Z,9.3
2024-01-03T06:26:34.525Z,9.3
2024-01-03T06:27:35.828Z,9.3
2024-01-03T06:28:37.060Z,9.3
2024-01-03T06:29:40.235Z,9.3
2024-01-03T06:30:46.472Z,9.3
2024-01-03T06:31:47.688Z,9.3
2024-01-03T06:32:48.907Z,9.3
2024-01-03T06:33:50.433Z,9.3
2024-01-03T06:34:51.798Z,9.3
2024-01-03T06:35:52.980Z,9.3
2024-01-03T06:36:54.154Z,9.3
2024-01-03T06:37:55.444Z,9.3
2024-01-03T06:38:56.615Z,9.3
2024-01-03T06:39:57.873Z,9.3
2024-01-03T06:40:59.042Z,9.3
2024-01-03T06:42:00.271Z,9.3
2024-01-03T06:43:01.615Z,9.3
2024-01-03T06:44:02.769Z,9.3
2024-01-03T06:45:04.049Z,9.3
2024-01-03T06:46:05.368Z,9.3
2024-01-03T06:47:06.527Z,9.3
2024-01-03T06:48:07.931Z,9.3
2024-01-03T06:49:10.511Z,9.3
2024-01-03T06:50:12.232Z,9.3
2024-01-03T06:51:13.407Z,9.3
2024-01-03T06:52:15.117Z,9.3
2024-01-03T06:53:16.350Z,9.3
2024-01-03T06:54:17.585Z,9.3
2024-01-03T06:55:18.756Z,9.3
2024-01-03T06:56:19.935Z,9.3
2024-01-03T06:57:21.118Z,9.3
2024-01-03T06:58:22.501Z,9.3
2024-01-03T06:59:23.832Z,9.3
2024-01-03T07:00:25.033Z,9.4
2024-01-03T07:01:26.242Z,9.4
2024-01-03T07:02:27.488Z,9.3
2024-01-03T07:03:29.031Z,9.3
2024-01-03T07:04:30.455Z,9.3
2024-01-03T07:05:31.654Z,9.3
2024-01-03T07:06:33.156Z,9.3
2024-01-03T07:07:34.392Z,9.4
2024-01-03T07:08:35.603Z,9.4
2024-01-03T07:09:36.862Z,9.4
2024-01-03T07:10:38.029Z,9.4
2024-01-03T07:11:39.234Z,9.3
2024-01-03T07:12:40.448Z,9.3
2024-01-03T07:13:41.667Z,9.4
2024-01-03T07:14:42.841Z,9.4
2024-01-03T07:15:44.096Z,9.4
2024-01-03T07:16:47.137Z,9.4
2024-01-03T07:17:52.820Z,9.4
2024-01-03T07:18:54.392Z,9.4
2024-01-03T07:19:56.401Z,9.4
2024-01-03T07:20:57.595Z,9.4
2024-01-03T07:21:58.888Z,9.4
2024-01-03T07:23:00.067Z,9.4
2024-01-03T07:24:01.287Z,9.4
2024-01-03T07:25:02.594Z,9.4
2024-01-03T07:26:03.744Z,9.4
2024-01-03T07:27:05.036Z,9.4
2024-01-03T07:28:06.379Z,9.4
2024-01-03T07:29:08.014Z,9.4
2024-01-03T07:30:09.251Z,9.4
2024-01-03T07:31:10.695Z,9.4
2024-01-03T07:32:11.928Z,9.4
2024-01-03T07:33:16.042Z,9.4
2024-01-03T07:34:18.383Z,9.4
2024-01-03T07:35:19.861Z,9.4
2024-01-03T07:36:21.105Z,9.4
2024-01-03T07:37:22.290Z,9.4
2024-01-03T07:38:23.506Z,9.4
2024-01-03T07:39:24.715Z,9.4
2024-01-03T07:40:25.849Z,9.4
2024-01-03T07:41:27.062Z,9.4
2024-01-03T07:42:28.220Z,9.4
2024-01-03T07:43:29.386Z,9.5
2024-01-03T07:44:30.624Z,9.5
2024-01-03T07:45:31.795Z,9.5
2024-01-03T07:46:32.954Z,9.5
2024-01-03T07:47:34.190Z,9.5
2024-01-03T07:48:35.596Z,9.5
2024-01-03T07:49:37.303Z,9.6
2024-01-03T07:50:38.480Z,9.6
2024-01-03T07:51:40.060Z,9.6
2024-01-03T07:52:41.536Z,9.6
2024-01-03T07:53:42.713Z,9.6
2024-01-03T07:54:43.941Z,9.6
2024-01-03T07:55:45.087Z,9.6
2024-01-03T07:56:46.279Z,9.6
2024-01-03T07:57:47.444Z,9.7
2024-01-03T07:58:48.614Z,9.7
2024-01-03T07:59:51.355Z,9.7
2024-01-03T08:00:52.624Z,9.7
2024-01-03T08:01:53.943Z,9.7
2024-01-03T08:02:55.136Z,9.7
2024-01-03T08:03:56.435Z,9.8
2024-01-03T08:04:58.015Z,9.8
2024-01-03T08:06:01.111Z,9.8
2024-01-03T08:07:06.633Z,9.8
2024-01-03T08:08:08.185Z,9.8
2024-01-03T08:09:10.444Z,9.9
2024-01-03T08:10:11.632Z,9.9
2024-01-03T08:11:12.786Z,9.9
2024-01-03T08:12:13.943Z,9.9
2024-01-03T08:13:15.110Z,9.9
2024-01-03T08:14:16.274Z,10
2024-01-03T08:15:17.560Z,10
2024-01-03T08:16:18.692Z,10
2024-01-03T08:17:19.907Z,10
2024-01-03T08:18:21.278Z,10
2024-01-03T08:19:23.224Z,10
2024-01-03T08:20:25.177Z,10
2024-01-03T08:21:27.011Z,10.1
2024-01-03T08:22:33.900Z,10.1
2024-01-03T08:23:35.259Z,10.1
2024-01-03T08:24:36.719Z,10.1
2024-01-03T08:25:40.884Z,10.1
2024-01-03T08:26:42.122Z,10.2
2024-01-03T08:27:43.307Z,10.2
2024-01-03T08:28:44.471Z,10.2
2024-01-03T08:29:48.066Z,10.3
2024-01-03T08:30:51.274Z,10.3
2024-01-03T08:31:52.460Z,10.3
2024-01-03T08:32:53.741Z,10.3
2024-01-03T08:33:55.216Z,10.3
2024-01-03T08:34:57.038Z,10.3
2024-01-03T08:35:58.268Z,10.4
2024-01-03T08:36:59.574Z,10.4
2024-01-03T08:38:00.752Z,10.4
2024-01-03T08:39:01.931Z,10.4
2024-01-03T08:40:03.105Z,10.5
2024-01-03T08:41:04.274Z,10.5
2024-01-03T08:42:05.456Z,10.6
2024-01-03T08:43:06.614Z,10.5
2024-01-03T08:44:07.779Z,10.5
2024-01-03T08:45:08.991Z,10.6
2024-01-03T08:46:10.195Z,10.6
2024-01-03T08:47:11.322Z,10.6
2024-01-03T08:48:12.742Z,10.6
2024-01-03T08:49:15.322Z,10.6
2024-01-03T08:50:17.021Z,10.6
2024-01-03T08:52:20.238Z,10.6
2024-01-03T08:53:21.416Z,10.6
2024-01-03T08:54:22.615Z,10.7
2024-01-03T08:55:23.833Z,10.7
2024-01-03T08:56:25.018Z,10.7
2024-01-03T08:57:26.183Z,10.7
2024-01-03T08:58:27.349Z,10.7
2024-01-03T08:59:28.566Z,10.7
2024-01-03T09:00:29.840Z,10.7
2024-01-03T09:01:31.284Z,10.7
2024-01-03T09:02:32.492Z,10.7
2024-01-03T09:03:33.792Z,10.7
2024-01-03T09:04:34.983Z,10.7
2024-01-03T09:05:36.196Z,10.7
2024-01-03T09:06:37.622Z,10.8
2024-01-03T09:07:39.064Z,10.8
2024-01-03T09:08:40.272Z,10.8
2024-01-03T09:09:41.566Z,10.8
2024-01-03T09:10:42.728Z,10.8
2024-01-03T09:11:43.920Z,10.9
2024-01-03T09:12:45.165Z,11
2024-01-03T09:13:47.987Z,11.2
2024-01-03T09:14:51.276Z,11.4
2024-01-03T09:15:52.482Z,11.5
2024-01-03T09:16:53.699Z,11.7
2024-01-03T09:17:54.952Z,11.9
2024-01-03T09:18:56.434Z,11.7
2024-01-03T09:19:58.269Z,11.7
2024-01-03T09:20:59.639Z,11.7
2024-01-03T09:22:01.029Z,11.6
2024-01-03T09:23:02.262Z,11.6
2024-01-03T09:24:03.426Z,11.6
2024-01-03T09:25:04.740Z,11.7
2024-01-03T09:26:05.949Z,11.8
2024-01-03T09:27:07.171Z,11.8
2024-01-03T09:28:08.604Z,12.1
2024-01-03T09:29:10.564Z,12.6
2024-01-03T09:30:11.762Z,13
2024-01-03T09:31:13.177Z,13.5
2024-01-03T09:32:14.391Z,14
2024-01-03T09:33:15.634Z,14.4
2024-01-03T09:34:17.302Z,14.8
2024-01-03T09:35:19.021Z,15.1
2024-01-03T09:36:22.891Z,15.6
2024-01-03T09:37:29.647Z,15.3
2024-01-03T09:38:30.946Z,15.8
2024-01-03T09:39:32.402Z,16.1
2024-01-03T09:40:33.575Z,16.5
2024-01-03T09:41:34.760Z,16.9
2024-01-03T09:42:36.324Z,17.2
2024-01-03T09:43:38.863Z,17.6
2024-01-03T09:44:40.097Z,17.9
2024-01-03T09:45:41.412Z,18.3
2024-01-03T09:46:45.147Z,18.6
2024-01-03T09:47:46.403Z,18.8
2024-01-03T09:48:48.053Z,18.6
2024-01-03T09:49:50.545Z,18.7
2024-01-03T09:50:51.953Z,18.4
2024-01-03T09:51:53.237Z,18.3
2024-01-03T09:52:54.365Z,18.1
2024-01-03T09:53:55.640Z,18.4
2024-01-03T09:54:57.484Z,18.6
2024-01-03T09:55:58.659Z,18.9
2024-01-03T09:56:59.964Z,19.3
2024-01-03T09:58:01.346Z,19.5
2024-01-03T09:59:02.499Z,19.8
2024-01-03T10:00:03.761Z,20.1
2024-01-03T10:01:05.140Z,20.4
2024-01-03T10:02:07.531Z,20.3
2024-01-03T10:03:09.110Z,20.7
2024-01-03T10:04:10.956Z,20.9
2024-01-03T10:05:12.177Z,21.1
2024-01-03T10:06:16.873Z,21.4
2024-01-03T10:07:22.924Z,21.7
2024-01-03T10:08:24.093Z,21.8
2024-01-03T10:09:25.353Z,22.1
2024-01-03T10:10:26.483Z,22.3
2024-01-03T10:11:27.791Z,22.5
2024-01-03T10:12:29.324Z,22.4
2024-01-03T10:13:30.456Z,22.2
2024-01-03T10:14:31.625Z,22.6
2024-01-03T10:15:32.822Z,22.9
2024-01-03T10:16:33.969Z,23.1
2024-01-03T10:17:35.156Z,23.3
2024-01-03T10:18:36.661Z,23.2
2024-01-03T10:19:38.649Z,23.1
2024-01-03T10:20:40.651Z,23.3
2024-01-03T10:21:41.807Z,23
2024-01-03T10:22:42.979Z,22.8
2024-01-03T10:23:44.165Z,22.7
2024-01-03T10:24:45.338Z,22.9
2024-01-03T10:25:46.618Z,23.1
2024-01-03T10:26:48.018Z,23.3
2024-01-03T10:27:49.338Z,23.5
2024-01-03T10:28:50.509Z,23.7
2024-01-03T10:29:52.150Z,23.8
2024-01-03T10:30:53.672Z,23.9
2024-01-03T10:31:55.828Z,24
2024-01-03T10:32:57.043Z,23.9
2024-01-03T10:34:02.916Z,23.5
2024-01-03T10:35:05.553Z,23.3
2024-01-03T10:36:06.864Z,23.1
2024-01-03T10:37:08.675Z,23.2
2024-01-03T10:38:10.265Z,23.5
2024-01-03T10:39:12.515Z,23.5
2024-01-03T10:40:15.836Z,23.3
2024-01-03T10:41:18.894Z,23.1
2024-01-03T10:43:21.306Z,23.4
2024-01-03T10:44:22.514Z,23.2
2024-01-03T10:45:24.072Z,23
2024-01-03T10:46:25.354Z,23.3
2024-01-03T10:47:26.558Z,23.5
2024-01-03T10:48:28.041Z,23.6
2024-01-03T10:49:30.200Z,23.7
2024-01-03T10:50:31.611Z,23.9
2024-01-03T10:51:32.838Z,24.1
2024-01-03T10:52:34.010Z,24.3
2024-01-03T10:53:35.190Z,24.5
2024-01-03T10:54:36.360Z,24.7
2024-01-03T10:55:37.526Z,24.9
2024-01-03T10:56:38.709Z,25
2024-01-03T10:57:40.048Z,25.2
2024-01-03T10:58:41.210Z,25.4
2024-01-03T10:59:42.397Z,25.5
2024-01-03T11:00:43.565Z,25.6
2024-01-03T11:01:44.728Z,25.6
2024-01-03T11:02:45.945Z,25.6
2024-01-03T11:03:47.136Z,25.8
2024-01-03T11:04:48.479Z,26
2024-01-03T11:05:49.667Z,26.3
2024-01-03T11:06:50.948Z,26.4
2024-01-03T11:07:52.187Z,26.4
2024-01-03T11:08:53.446Z,26.6
2024-01-03T11:09:55.007Z,26.8
2024-01-03T11:10:56.367Z,26.9
2024-01-03T11:11:57.544Z,27.1
2024-01-03T11:12:58.763Z,27.2
2024-01-03T11:13:59.918Z,27.4
2024-01-03T11:15:01.122Z,27.5
2024-01-03T11:16:02.494Z,27.7
2024-01-03T11:17:03.853Z,27.9
2024-01-03T11:18:05.049Z,27.6
2024-01-03T11:19:06.691Z,27.6
2024-01-03T11:20:08.235Z,27.8
2024-01-03T11:21:09.556Z,28
2024-01-03T11:22:10.739Z,28.2
2024-01-03T11:23:11.936Z,28.3
2024-01-03T11:24:13.171Z,28.3
2024-01-03T11:25:14.398Z,28.6
2024-01-03T11:26:17.988Z,28.7
2024-01-03T11:27:20.656Z,28.9
2024-01-03T11:28:26.986Z,29.1
2024-01-03T11:29:28.144Z,29
2024-01-03T11:30:29.397Z,28.9
2024-01-03T11:31:30.644Z,28.6
2024-01-03T11:32:34.608Z,28.4
2024-01-03T11:33:45.064Z,28.2
2024-01-03T11:34:46.749Z,28.1
2024-01-03T11:35:48.235Z,27.9
2024-01-03T11:36:49.450Z,27.7
2024-01-03T11:37:50.603Z,27.5
2024-01-03T11:38:51.787Z,27.2
2024-01-03T11:39:52.971Z,27
2024-01-03T11:40:54.390Z,26.7
2024-01-03T11:41:55.605Z,26.4
2024-01-03T11:42:57.188Z,26.2
2024-01-03T11:43:58.355Z,26
2024-01-03T11:44:59.575Z,25.7
2024-01-03T11:46:00.744Z,25.4
2024-01-03T11:47:01.905Z,25.2
2024-01-03T11:48:03.257Z,24.9
2024-01-03T11:49:05.274Z,24.6
2024-01-03T11:50:06.682Z,24.3
2024-01-03T11:51:07.919Z,24
2024-01-03T11:52:09.234Z,23.7
2024-01-03T11:53:10.412Z,23.4
2024-01-03T11:54:11.652Z,23.1
2024-01-03T11:55:12.841Z,22.9
2024-01-03T11:56:14.013Z,22.6
2024-01-03T11:57:15.188Z,22.4
2024-01-03T11:58:16.424Z,22.1
2024-01-03T11:59:17.681Z,21.9
2024-01-03T12:00:18.843Z,21.7
2024-01-03T12:01:20.043Z,21.4
2024-01-03T12:02:21.233Z,21.2
2024-01-03T12:03:22.809Z,20.9
2024-01-03T12:04:24.164Z,20.7
2024-01-03T12:05:25.675Z,20.6
2024-01-03T12:06:27.351Z,20.3
2024-01-03T12:07:28.690Z,20.1
2024-01-03T12:08:29.948Z,19.9
2024-01-03T12:09:31.150Z,19.8
2024-01-03T12:10:32.317Z,20.3
2024-01-03T12:11:33.493Z,20.5
2024-01-03T12:12:34.736Z,20.3
2024-01-03T12:13:35.913Z,20.4
2024-01-03T12:14:37.091Z,20.3
2024-01-03T12:15:43.097Z,20.1
2024-01-03T12:16:55.185Z,20.1
2024-01-03T12:17:56.425Z,20.1
2024-01-03T12:18:58.055Z,20
2024-01-03T12:20:00.024Z,20
2024-01-03T12:21:01.607Z,19.9
2024-01-03T12:22:02.861Z,19.8
2024-01-03T12:23:04.010Z,19.6
2024-01-03T12:24:05.243Z,19.6
2024-01-03T12:25:06.513Z,19.6
2024-01-03T12:26:07.668Z,19.7
2024-01-03T12:27:08.906Z,20.2
2024-01-03T12:28:10.267Z,20.5
2024-01-03T12:29:11.419Z,20.8
2024-01-03T12:30:12.648Z,21.1
2024-01-03T12:31:14.152Z,21.4
2024-01-03T12:32:15.596Z,21.6
2024-01-03T12:33:17.858Z,21.9
2024-01-03T12:34:20.664Z,21.8
2024-01-03T12:35:22.301Z,21.9
2024-01-03T12:36:23.509Z,21.9
2024-01-03T12:37:24.723Z,22.4
2024-01-03T12:38:25.897Z,22.1
2024-01-03T12:39:27.092Z,21.9
2024-01-03T12:40:28.275Z,22.4
2024-01-03T12:41:29.452Z,22.5
2024-01-03T12:42:36.099Z,22.7
2024-01-03T12:43:44.322Z,22.9
2024-01-03T12:44:45.492Z,22.9
2024-01-03T12:45:46.889Z,22.7
2024-01-03T12:46:48.049Z,23.1
2024-01-03T12:47:49.364Z,23.2
2024-01-03T12:49:07.332Z,23.5
2024-01-03T12:50:08.840Z,23.5
2024-01-03T12:51:10.472Z,23.2
2024-01-03T12:52:11.781Z,23
2024-01-03T12:53:13.032Z,22.8
2024-01-03T12:54:14.214Z,23.1
2024-01-03T12:55:15.567Z,23.3
2024-01-03T12:56:16.999Z,23.1
2024-01-03T12:57:18.164Z,22.9
2024-01-03T12:58:19.334Z,22.6
2024-01-03T12:59:21.076Z,22.4
2024-01-03T13:00:22.338Z,22.2
2024-01-03T13:01:23.498Z,22
2024-01-03T13:02:24.695Z,21.7
2024-01-03T13:03:25.923Z,21.6
2024-01-03T13:04:27.113Z,21.4
2024-01-03T13:05:28.320Z,21.2
2024-01-03T13:06:29.816Z,21
2024-01-03T13:07:31.207Z,20.8
2024-01-03T13:08:35.098Z,20.6
2024-01-03T13:09:36.457Z,20.4
2024-01-03T13:10:37.616Z,20.3
2024-01-03T13:11:39.414Z,20.1
2024-01-03T13:12:40.698Z,19.9
2024-01-03T13:13:41.866Z,19.7
2024-01-03T13:14:43.064Z,19.6
2024-01-03T13:15:45.524Z,19.4
2024-01-03T13:16:48.606Z,19.2
2024-01-03T13:17:49.870Z,19.1
2024-01-03T13:18:51.783Z,19
2024-01-03T13:19:53.569Z,18.8
2024-01-03T13:20:54.854Z,19.5
2024-01-03T13:21:56.069Z,19.3
2024-01-03T13:22:57.376Z,19.5
2024-01-03T13:23:58.577Z,19.8
2024-01-03T13:24:59.795Z,19.3
2024-01-03T13:26:00.996Z,19.1
2024-01-03T13:27:02.187Z,18.9
2024-01-03T13:28:03.724Z,19.3
2024-01-03T13:29:04.922Z,19.1
2024-01-03T13:30:06.270Z,20.5
2024-01-03T13:31:07.682Z,21.9
2024-01-03T13:32:09.027Z,21.5
2024-01-03T13:33:10.700Z,20.5
2024-01-03T13:34:13.478Z,20.1
2024-01-03T13:35:15.371Z,19.9
2024-01-03T13:36:16.768Z,19.6
2024-01-03T13:37:18.453Z,19.3
2024-01-03T13:38:20.764Z,19.1
2024-01-03T13:39:22.121Z,19
2024-01-03T13:40:23.431Z,18.8
2024-01-03T13:41:24.815Z,18.7
2024-01-03T13:42:26.108Z,18.5
2024-01-03T13:43:27.359Z,18.4
2024-01-03T13:44:28.560Z,18.3
2024-01-03T13:45:31.529Z,18.2
2024-01-03T13:46:32.940Z,18.1
2024-01-03T13:47:34.168Z,17.9
2024-01-03T13:48:35.779Z,17.8
2024-01-03T13:49:37.539Z,17.7
2024-01-03T13:50:39.288Z,17.5
2024-01-03T13:51:40.579Z,17.4
2024-01-03T13:52:41.745Z,17.3
2024-01-03T13:53:43.007Z,17.2
2024-01-03T13:54:44.314Z,17.1
2024-01-03T13:55:45.465Z,17
2024-01-03T13:56:46.653Z,16.9
2024-01-03T13:57:48.012Z,16.8
2024-01-03T13:58:49.160Z,16.7